sensor_id;sensor_type;location;lat;lon;timestamp;P1;durP1;ratioP1;P2;durP2;ratioP2
65174;SDS011;51761;42.126;24.752;2022-07-04T00:00:35;7.80;;;2.28;;
65174;SDS011;51761;42.126;24.752;2022-07-04T00:03:00;6.63;;;2.15;;
65174;SDS011;51761;42.126;24.752;2022-07-04T00:05:26;5.65;;;2.78;;
65174;SDS011;51761;42.126;24.752;2022-07-04T00:07:51;4.43;;;2.17;;
65174;SDS011;51761;42.126;24.752;2022-07-04T00:10:18;3.55;;;2.38;;
65174;SDS011;51761;42.126;24.752;2022-07-04T00:12:45;11.60;;;2.47;;
65174;SDS011;51761;42.126;24.752;2022-07-04T00:15:11;6.40;;;2.80;;
65174;SDS011;51761;42.126;24.752;2022-07-04T00:17:37;8.70;;;3.13;;
65174;SDS011;51761;42.126;24.752;2022-07-04T00:20:04;6.93;;;2.88;;
65174;SDS011;51761;42.126;24.752;2022-07-04T00:22:30;7.57;;;2.90;;
65174;SDS011;51761;42.126;24.752;2022-07-04T00:24:56;8.63;;;3.17;;
65174;SDS011;51761;42.126;24.752;2022-07-04T00:27:22;6.75;;;2.58;;
65174;SDS011;51761;42.126;24.752;2022-07-04T00:29:48;5.32;;;2.33;;
65174;SDS011;51761;42.126;24.752;2022-07-04T00:32:14;9.13;;;2.85;;
65174;SDS011;51761;42.126;24.752;2022-07-04T00:34:39;11.82;;;3.40;;
65174;SDS011;51761;42.126;24.752;2022-07-04T00:37:05;5.65;;;2.50;;
65174;SDS011;51761;42.126;24.752;2022-07-04T00:39:31;6.53;;;2.63;;
65174;SDS011;51761;42.126;24.752;2022-07-04T00:41:56;5.05;;;2.75;;
65174;SDS011;51761;42.126;24.752;2022-07-04T00:44:22;10.15;;;2.83;;
65174;SDS011;51761;42.126;24.752;2022-07-04T00:46:48;5.32;;;2.65;;
65174;SDS011;51761;42.126;24.752;2022-07-04T00:49:15;13.65;;;3.33;;
65174;SDS011;51761;42.126;24.752;2022-07-04T00:51:42;8.07;;;2.70;;
65174;SDS011;51761;42.126;24.752;2022-07-04T00:54:10;12.30;;;2.95;;
65174;SDS011;51761;42.126;24.752;2022-07-04T00:56:38;6.85;;;3.47;;
65174;SDS011;51761;42.126;24.752;2022-07-04T00:59:05;4.25;;;2.67;;
65174;SDS011;51761;42.126;24.752;2022-07-04T01:01:32;7.93;;;3.67;;
65174;SDS011;51761;42.126;24.752;2022-07-04T01:03:58;7.43;;;2.97;;
65174;SDS011;51761;42.126;24.752;2022-07-04T01:06:24;5.05;;;2.58;;
65174;SDS011;51761;42.126;24.752;2022-07-04T01:08:49;9.38;;;3.00;;
65174;SDS011;51761;42.126;24.752;2022-07-04T01:11:15;11.80;;;3.42;;
65174;SDS011;51761;42.126;24.752;2022-07-04T01:13:42;9.27;;;3.22;;
65174;SDS011;51761;42.126;24.752;2022-07-04T01:16:09;13.68;;;3.83;;
65174;SDS011;51761;42.126;24.752;2022-07-04T01:18:35;7.47;;;3.15;;
65174;SDS011;51761;42.126;24.752;2022-07-04T01:21:01;6.30;;;3.80;;
65174;SDS011;51761;42.126;24.752;2022-07-04T01:23:27;8.05;;;3.75;;
65174;SDS011;51761;42.126;24.752;2022-07-04T01:25:53;5.75;;;3.20;;
65174;SDS011;51761;42.126;24.752;2022-07-04T01:28:20;8.13;;;3.80;;
65174;SDS011;51761;42.126;24.752;2022-07-04T01:30:46;8.07;;;3.20;;
65174;SDS011;51761;42.126;24.752;2022-07-04T01:33:12;14.38;;;3.55;;
65174;SDS011;51761;42.126;24.752;2022-07-04T01:35:38;6.43;;;3.50;;
65174;SDS011;51761;42.126;24.752;2022-07-04T01:38:04;8.50;;;3.13;;
65174;SDS011;51761;42.126;24.752;2022-07-04T01:40:30;13.98;;;3.67;;
65174;SDS011;51761;42.126;24.752;2022-07-04T01:42:55;5.50;;;3.72;;
65174;SDS011;51761;42.126;24.752;2022-07-04T01:45:23;6.32;;;3.40;;
65174;SDS011;51761;42.126;24.752;2022-07-04T01:47:49;6.75;;;2.88;;
65174;SDS011;51761;42.126;24.752;2022-07-04T01:50:14;11.77;;;3.22;;
65174;SDS011;51761;42.126;24.752;2022-07-04T01:52:40;6.40;;;3.15;;
65174;SDS011;51761;42.126;24.752;2022-07-04T01:55:07;7.55;;;3.15;;
65174;SDS011;51761;42.126;24.752;2022-07-04T01:57:36;6.18;;;3.55;;
65174;SDS011;51761;42.126;24.752;2022-07-04T02:00:03;7.40;;;3.28;;
65174;SDS011;51761;42.126;24.752;2022-07-04T02:02:51;5.80;;;2.88;;
65174;SDS011;51761;42.126;24.752;2022-07-04T02:05:17;8.95;;;2.97;;
65174;SDS011;51761;42.126;24.752;2022-07-04T02:07:43;6.55;;;3.15;;
65174;SDS011;51761;42.126;24.752;2022-07-04T02:10:09;4.43;;;3.05;;
65174;SDS011;51761;42.126;24.752;2022-07-04T02:12:35;7.03;;;3.05;;
65174;SDS011;51761;42.126;24.752;2022-07-04T02:15:19;4.70;;;2.67;;
65174;SDS011;51761;42.126;24.752;2022-07-04T02:17:45;7.15;;;3.40;;
65174;SDS011;51761;42.126;24.752;2022-07-04T02:20:11;6.85;;;2.83;;
65174;SDS011;51761;42.126;24.752;2022-07-04T02:22:37;12.63;;;3.50;;
65174;SDS011;51761;42.126;24.752;2022-07-04T02:25:02;6.18;;;3.13;;
65174;SDS011;51761;42.126;24.752;2022-07-04T02:27:28;7.10;;;3.58;;
65174;SDS011;51761;42.126;24.752;2022-07-04T02:29:54;8.30;;;3.05;;
65174;SDS011;51761;42.126;24.752;2022-07-04T02:32:19;5.68;;;2.65;;
65174;SDS011;51761;42.126;24.752;2022-07-04T02:34:45;7.18;;;2.90;;
65174;SDS011;51761;42.126;24.752;2022-07-04T02:37:10;9.75;;;3.15;;
65174;SDS011;51761;42.126;24.752;2022-07-04T02:39:36;5.45;;;3.40;;
65174;SDS011;51761;42.126;24.752;2022-07-04T02:42:01;7.57;;;3.28;;
65174;SDS011;51761;42.126;24.752;2022-07-04T02:44:27;12.73;;;3.17;;
65174;SDS011;51761;42.126;24.752;2022-07-04T02:46:53;8.10;;;4.00;;
65174;SDS011;51761;42.126;24.752;2022-07-04T02:49:19;10.20;;;2.75;;
65174;SDS011;51761;42.126;24.752;2022-07-04T02:51:44;10.73;;;3.10;;
65174;SDS011;51761;42.126;24.752;2022-07-04T02:54:10;15.25;;;3.30;;
65174;SDS011;51761;42.126;24.752;2022-07-04T02:56:36;5.22;;;2.63;;
65174;SDS011;51761;42.126;24.752;2022-07-04T02:59:01;6.25;;;3.38;;
65174;SDS011;51761;42.126;24.752;2022-07-04T03:01:27;6.38;;;3.33;;
65174;SDS011;51761;42.126;24.752;2022-07-04T03:03:52;10.68;;;2.88;;
65174;SDS011;51761;42.126;24.752;2022-07-04T03:06:18;6.82;;;3.15;;
65174;SDS011;51761;42.126;24.752;2022-07-04T03:08:44;9.10;;;3.33;;
65174;SDS011;51761;42.126;24.752;2022-07-04T03:11:09;6.50;;;3.20;;
65174;SDS011;51761;42.126;24.752;2022-07-04T03:13:36;6.53;;;3.17;;
65174;SDS011;51761;42.126;24.752;2022-07-04T03:16:02;8.70;;;3.53;;
65174;SDS011;51761;42.126;24.752;2022-07-04T03:18:28;9.02;;;3.33;;
65174;SDS011;51761;42.126;24.752;2022-07-04T03:20:53;6.85;;;3.30;;
65174;SDS011;51761;42.126;24.752;2022-07-04T03:23:19;8.73;;;3.35;;
65174;SDS011;51761;42.126;24.752;2022-07-04T03:25:44;10.43;;;3.40;;
65174;SDS011;51761;42.126;24.752;2022-07-04T03:28:10;13.70;;;3.53;;
65174;SDS011;51761;42.126;24.752;2022-07-04T03:30:35;6.13;;;3.05;;
65174;SDS011;51761;42.126;24.752;2022-07-04T03:33:01;17.13;;;4.28;;
65174;SDS011;51761;42.126;24.752;2022-07-04T03:35:27;8.73;;;3.63;;
65174;SDS011;51761;42.126;24.752;2022-07-04T03:37:53;10.63;;;3.65;;
65174;SDS011;51761;42.126;24.752;2022-07-04T03:40:19;8.68;;;3.80;;
65174;SDS011;51761;42.126;24.752;2022-07-04T03:42:46;7.20;;;3.75;;
65174;SDS011;51761;42.126;24.752;2022-07-04T03:45:12;7.78;;;4.20;;
65174;SDS011;51761;42.126;24.752;2022-07-04T03:47:38;13.55;;;3.58;;
65174;SDS011;51761;42.126;24.752;2022-07-04T03:50:03;10.10;;;3.47;;
65174;SDS011;51761;42.126;24.752;2022-07-04T03:52:29;13.18;;;3.75;;
65174;SDS011;51761;42.126;24.752;2022-07-04T03:54:55;7.82;;;3.83;;
65174;SDS011;51761;42.126;24.752;2022-07-04T03:57:21;4.28;;;3.58;;
65174;SDS011;51761;42.126;24.752;2022-07-04T03:59:46;11.00;;;3.80;;
65174;SDS011;51761;42.126;24.752;2022-07-04T04:02:12;10.13;;;4.38;;
65174;SDS011;51761;42.126;24.752;2022-07-04T04:04:38;9.68;;;3.95;;
65174;SDS011;51761;42.126;24.752;2022-07-04T04:07:22;13.15;;;5.10;;
65174;SDS011;51761;42.126;24.752;2022-07-04T04:09:48;12.02;;;4.82;;
65174;SDS011;51761;42.126;24.752;2022-07-04T04:12:13;12.65;;;4.75;;
65174;SDS011;51761;42.126;24.752;2022-07-04T04:14:39;16.33;;;4.60;;
65174;SDS011;51761;42.126;24.752;2022-07-04T04:17:05;17.30;;;4.45;;
65174;SDS011;51761;42.126;24.752;2022-07-04T04:19:30;10.05;;;4.45;;
65174;SDS011;51761;42.126;24.752;2022-07-04T04:21:56;9.70;;;4.60;;
65174;SDS011;51761;42.126;24.752;2022-07-04T04:24:21;8.63;;;3.83;;
65174;SDS011;51761;42.126;24.752;2022-07-04T04:26:47;15.38;;;4.00;;
65174;SDS011;51761;42.126;24.752;2022-07-04T04:29:12;19.42;;;10.93;;
65174;SDS011;51761;42.126;24.752;2022-07-04T04:31:38;13.38;;;6.15;;
65174;SDS011;51761;42.126;24.752;2022-07-04T04:34:03;25.08;;;6.05;;
65174;SDS011;51761;42.126;24.752;2022-07-04T04:36:29;8.65;;;4.00;;
65174;SDS011;51761;42.126;24.752;2022-07-04T04:38:55;10.02;;;4.07;;
65174;SDS011;51761;42.126;24.752;2022-07-04T04:41:20;9.90;;;4.68;;
65174;SDS011;51761;42.126;24.752;2022-07-04T04:43:46;11.10;;;4.50;;
65174;SDS011;51761;42.126;24.752;2022-07-04T04:46:12;12.93;;;4.90;;
65174;SDS011;51761;42.126;24.752;2022-07-04T04:48:37;12.57;;;5.03;;
65174;SDS011;51761;42.126;24.752;2022-07-04T04:51:03;8.95;;;4.88;;
65174;SDS011;51761;42.126;24.752;2022-07-04T04:53:29;11.57;;;5.25;;
65174;SDS011;51761;42.126;24.752;2022-07-04T04:55:55;18.67;;;6.40;;
65174;SDS011;51761;42.126;24.752;2022-07-04T04:58:21;15.30;;;5.07;;
65174;SDS011;51761;42.126;24.752;2022-07-04T05:00:47;8.73;;;4.25;;
65174;SDS011;51761;42.126;24.752;2022-07-04T05:03:17;10.38;;;4.50;;
65174;SDS011;51761;42.126;24.752;2022-07-04T05:05:43;13.65;;;5.10;;
65174;SDS011;51761;42.126;24.752;2022-07-04T05:08:10;13.00;;;4.38;;
65174;SDS011;51761;42.126;24.752;2022-07-04T05:10:35;11.68;;;5.45;;
65174;SDS011;51761;42.126;24.752;2022-07-04T05:13:01;13.77;;;5.95;;
65174;SDS011;51761;42.126;24.752;2022-07-04T05:15:28;26.83;;;7.03;;
65174;SDS011;51761;42.126;24.752;2022-07-04T05:17:54;13.30;;;6.55;;
65174;SDS011;51761;42.126;24.752;2022-07-04T05:20:19;9.60;;;3.88;;
65174;SDS011;51761;42.126;24.752;2022-07-04T05:22:45;15.10;;;3.97;;
65174;SDS011;51761;42.126;24.752;2022-07-04T05:25:10;16.30;;;4.32;;
65174;SDS011;51761;42.126;24.752;2022-07-04T05:27:36;8.30;;;4.85;;
65174;SDS011;51761;42.126;24.752;2022-07-04T05:30:02;9.57;;;3.65;;
65174;SDS011;51761;42.126;24.752;2022-07-04T05:32:28;12.70;;;3.92;;
65174;SDS011;51761;42.126;24.752;2022-07-04T05:34:54;8.88;;;4.07;;
65174;SDS011;51761;42.126;24.752;2022-07-04T05:37:19;6.93;;;3.42;;
65174;SDS011;51761;42.126;24.752;2022-07-04T05:39:45;13.27;;;3.78;;
65174;SDS011;51761;42.126;24.752;2022-07-04T05:42:11;10.75;;;4.70;;
65174;SDS011;51761;42.126;24.752;2022-07-04T05:44:36;10.15;;;4.18;;
65174;SDS011;51761;42.126;24.752;2022-07-04T05:47:02;10.40;;;4.53;;
65174;SDS011;51761;42.126;24.752;2022-07-04T05:49:28;10.75;;;4.93;;
65174;SDS011;51761;42.126;24.752;2022-07-04T05:51:53;15.75;;;3.92;;
65174;SDS011;51761;42.126;24.752;2022-07-04T05:54:19;10.38;;;3.80;;
65174;SDS011;51761;42.126;24.752;2022-07-04T05:56:44;16.73;;;3.70;;
65174;SDS011;51761;42.126;24.752;2022-07-04T05:59:10;22.83;;;3.80;;
65174;SDS011;51761;42.126;24.752;2022-07-04T06:01:36;16.42;;;5.00;;
65174;SDS011;51761;42.126;24.752;2022-07-04T06:04:02;24.33;;;7.78;;
65174;SDS011;51761;42.126;24.752;2022-07-04T06:06:28;16.13;;;3.83;;
65174;SDS011;51761;42.126;24.752;2022-07-04T06:08:55;14.45;;;3.13;;
65174;SDS011;51761;42.126;24.752;2022-07-04T06:11:21;7.18;;;3.13;;
65174;SDS011;51761;42.126;24.752;2022-07-04T06:13:47;9.35;;;3.28;;
65174;SDS011;51761;42.126;24.752;2022-07-04T06:16:13;11.77;;;3.47;;
65174;SDS011;51761;42.126;24.752;2022-07-04T06:18:39;13.02;;;3.47;;
65174;SDS011;51761;42.126;24.752;2022-07-04T06:21:04;9.55;;;2.85;;
65174;SDS011;51761;42.126;24.752;2022-07-04T06:23:30;8.40;;;3.45;;
65174;SDS011;51761;42.126;24.752;2022-07-04T06:25:56;19.88;;;3.72;;
65174;SDS011;51761;42.126;24.752;2022-07-04T06:28:22;13.57;;;3.03;;
65174;SDS011;51761;42.126;24.752;2022-07-04T06:30:47;10.63;;;3.97;;
65174;SDS011;51761;42.126;24.752;2022-07-04T06:33:13;7.40;;;2.95;;
65174;SDS011;51761;42.126;24.752;2022-07-04T06:35:38;8.25;;;3.10;;
65174;SDS011;51761;42.126;24.752;2022-07-04T06:38:19;10.27;;;3.00;;
65174;SDS011;51761;42.126;24.752;2022-07-04T06:40:48;17.63;;;4.00;;
65174;SDS011;51761;42.126;24.752;2022-07-04T06:43:15;12.27;;;3.10;;
65174;SDS011;51761;42.126;24.752;2022-07-04T06:45:40;9.65;;;2.97;;
65174;SDS011;51761;42.126;24.752;2022-07-04T06:48:06;10.93;;;2.95;;
65174;SDS011;51761;42.126;24.752;2022-07-04T06:50:32;4.60;;;2.70;;
65174;SDS011;51761;42.126;24.752;2022-07-04T06:52:59;12.10;;;3.30;;
65174;SDS011;51761;42.126;24.752;2022-07-04T06:55:25;10.23;;;3.20;;
65174;SDS011;51761;42.126;24.752;2022-07-04T06:57:51;11.45;;;3.00;;
65174;SDS011;51761;42.126;24.752;2022-07-04T07:00:16;10.10;;;3.00;;
65174;SDS011;51761;42.126;24.752;2022-07-04T07:02:42;16.40;;;3.35;;
65174;SDS011;51761;42.126;24.752;2022-07-04T07:05:07;13.45;;;3.20;;
65174;SDS011;51761;42.126;24.752;2022-07-04T07:07:33;7.13;;;2.63;;
65174;SDS011;51761;42.126;24.752;2022-07-04T07:09:59;12.90;;;4.15;;
65174;SDS011;51761;42.126;24.752;2022-07-04T07:12:26;10.20;;;3.35;;
65174;SDS011;51761;42.126;24.752;2022-07-04T07:14:51;4.43;;;2.58;;
65174;SDS011;51761;42.126;24.752;2022-07-04T07:17:17;5.80;;;2.90;;
65174;SDS011;51761;42.126;24.752;2022-07-04T07:19:43;8.57;;;3.28;;
65174;SDS011;51761;42.126;24.752;2022-07-04T07:22:09;5.47;;;2.95;;
65174;SDS011;51761;42.126;24.752;2022-07-04T07:24:35;5.70;;;2.80;;
65174;SDS011;51761;42.126;24.752;2022-07-04T07:27:01;10.65;;;3.60;;
65174;SDS011;51761;42.126;24.752;2022-07-04T07:29:27;19.70;;;4.15;;
65174;SDS011;51761;42.126;24.752;2022-07-04T07:31:52;11.35;;;4.13;;
65174;SDS011;51761;42.126;24.752;2022-07-04T07:34:18;6.60;;;3.13;;
65174;SDS011;51761;42.126;24.752;2022-07-04T07:36:43;5.95;;;3.63;;
65174;SDS011;51761;42.126;24.752;2022-07-04T07:39:09;10.13;;;3.13;;
65174;SDS011;51761;42.126;24.752;2022-07-04T07:41:34;11.20;;;3.20;;
65174;SDS011;51761;42.126;24.752;2022-07-04T07:44:00;40.45;;;5.00;;
65174;SDS011;51761;42.126;24.752;2022-07-04T07:46:26;11.38;;;3.35;;
65174;SDS011;51761;42.126;24.752;2022-07-04T07:48:51;16.23;;;3.45;;
65174;SDS011;51761;42.126;24.752;2022-07-04T07:51:17;7.72;;;3.10;;
65174;SDS011;51761;42.126;24.752;2022-07-04T07:53:43;14.40;;;3.33;;
65174;SDS011;51761;42.126;24.752;2022-07-04T07:56:09;10.05;;;3.30;;
65174;SDS011;51761;42.126;24.752;2022-07-04T07:58:34;10.00;;;3.25;;
65174;SDS011;51761;42.126;24.752;2022-07-04T08:01:00;9.98;;;3.30;;
65174;SDS011;51761;42.126;24.752;2022-07-04T08:03:29;7.60;;;3.20;;
65174;SDS011;51761;42.126;24.752;2022-07-04T08:08:39;7.85;;;2.97;;
65174;SDS011;51761;42.126;24.752;2022-07-04T08:11:05;4.47;;;3.50;;
65174;SDS011;51761;42.126;24.752;2022-07-04T08:13:30;6.43;;;2.60;;
65174;SDS011;51761;42.126;24.752;2022-07-04T08:15:56;6.88;;;2.72;;
65174;SDS011;51761;42.126;24.752;2022-07-04T08:18:21;12.43;;;3.88;;
65174;SDS011;51761;42.126;24.752;2022-07-04T08:20:48;5.13;;;3.05;;
65174;SDS011;51761;42.126;24.752;2022-07-04T08:23:14;7.35;;;2.80;;
65174;SDS011;51761;42.126;24.752;2022-07-04T08:25:40;22.40;;;2.90;;
65174;SDS011;51761;42.126;24.752;2022-07-04T08:28:05;9.27;;;3.28;;
65174;SDS011;51761;42.126;24.752;2022-07-04T08:30:31;6.43;;;2.30;;
65174;SDS011;51761;42.126;24.752;2022-07-04T08:32:56;9.55;;;2.65;;
65174;SDS011;51761;42.126;24.752;2022-07-04T08:35:22;5.00;;;2.72;;
65174;SDS011;51761;42.126;24.752;2022-07-04T08:37:47;6.50;;;2.60;;
65174;SDS011;51761;42.126;24.752;2022-07-04T08:40:18;3.90;;;2.30;;
65174;SDS011;51761;42.126;24.752;2022-07-04T08:42:46;5.43;;;2.67;;
65174;SDS011;51761;42.126;24.752;2022-07-04T08:45:11;7.88;;;2.88;;
65174;SDS011;51761;42.126;24.752;2022-07-04T08:47:40;8.10;;;3.00;;
65174;SDS011;51761;42.126;24.752;2022-07-04T08:50:12;8.45;;;3.63;;
65174;SDS011;51761;42.126;24.752;2022-07-04T08:52:42;9.20;;;3.00;;
65174;SDS011;51761;42.126;24.752;2022-07-04T08:55:09;4.82;;;2.60;;
65174;SDS011;51761;42.126;24.752;2022-07-04T08:57:55;7.60;;;2.95;;
65174;SDS011;51761;42.126;24.752;2022-07-04T09:00:40;8.93;;;2.88;;
65174;SDS011;51761;42.126;24.752;2022-07-04T09:03:06;7.90;;;2.88;;
65174;SDS011;51761;42.126;24.752;2022-07-04T09:05:33;6.60;;;2.97;;
65174;SDS011;51761;42.126;24.752;2022-07-04T09:07:59;9.75;;;2.72;;
65174;SDS011;51761;42.126;24.752;2022-07-04T09:10:25;9.10;;;2.78;;
65174;SDS011;51761;42.126;24.752;2022-07-04T09:12:51;9.27;;;3.17;;
65174;SDS011;51761;42.126;24.752;2022-07-04T09:15:17;8.60;;;2.42;;
65174;SDS011;51761;42.126;24.752;2022-07-04T09:17:43;8.40;;;3.08;;
65174;SDS011;51761;42.126;24.752;2022-07-04T09:22:38;7.72;;;2.83;;
65174;SDS011;51761;42.126;24.752;2022-07-04T09:25:05;5.25;;;2.72;;
65174;SDS011;51761;42.126;24.752;2022-07-04T09:27:32;7.93;;;2.65;;
65174;SDS011;51761;42.126;24.752;2022-07-04T09:30:00;15.07;;;2.30;;
65174;SDS011;51761;42.126;24.752;2022-07-04T09:35:01;5.80;;;2.10;;
65174;SDS011;51761;42.126;24.752;2022-07-04T09:37:34;6.82;;;2.25;;
65174;SDS011;51761;42.126;24.752;2022-07-04T09:42:39;5.53;;;1.98;;
65174;SDS011;51761;42.126;24.752;2022-07-04T09:45:08;5.78;;;2.40;;
65174;SDS011;51761;42.126;24.752;2022-07-04T09:47:36;5.07;;;2.28;;
65174;SDS011;51761;42.126;24.752;2022-07-04T09:52:31;5.97;;;2.08;;
65174;SDS011;51761;42.126;24.752;2022-07-04T09:55:00;3.65;;;3.03;;
65174;SDS011;51761;42.126;24.752;2022-07-04T09:57:32;5.93;;;2.75;;
65174;SDS011;51761;42.126;24.752;2022-07-04T10:00:15;7.05;;;2.60;;
65174;SDS011;51761;42.126;24.752;2022-07-04T10:02:42;4.80;;;2.92;;
65174;SDS011;51761;42.126;24.752;2022-07-04T10:05:08;6.47;;;2.60;;
65174;SDS011;51761;42.126;24.752;2022-07-04T10:07:34;6.00;;;2.75;;
65174;SDS011;51761;42.126;24.752;2022-07-04T10:12:57;7.68;;;2.60;;
65174;SDS011;51761;42.126;24.752;2022-07-04T10:15:25;6.03;;;2.22;;
65174;SDS011;51761;42.126;24.752;2022-07-04T10:17:51;10.10;;;2.70;;
65174;SDS011;51761;42.126;24.752;2022-07-04T10:20:16;6.57;;;2.60;;
65174;SDS011;51761;42.126;24.752;2022-07-04T10:22:42;6.38;;;2.20;;
65174;SDS011;51761;42.126;24.752;2022-07-04T10:25:08;6.93;;;2.40;;
65174;SDS011;51761;42.126;24.752;2022-07-04T10:27:35;11.40;;;3.00;;
65174;SDS011;51761;42.126;24.752;2022-07-04T10:30:02;6.25;;;2.53;;
65174;SDS011;51761;42.126;24.752;2022-07-04T10:32:30;8.38;;;2.60;;
65174;SDS011;51761;42.126;24.752;2022-07-04T10:34:57;3.20;;;2.00;;
65174;SDS011;51761;42.126;24.752;2022-07-04T10:37:23;6.32;;;2.38;;
65174;SDS011;51761;42.126;24.752;2022-07-04T10:39:48;7.60;;;3.40;;
65174;SDS011;51761;42.126;24.752;2022-07-04T10:42:23;6.55;;;2.60;;
65174;SDS011;51761;42.126;24.752;2022-07-04T10:44:49;8.15;;;2.40;;
65174;SDS011;51761;42.126;24.752;2022-07-04T10:47:22;5.18;;;2.50;;
65174;SDS011;51761;42.126;24.752;2022-07-04T10:49:49;8.18;;;2.30;;
65174;SDS011;51761;42.126;24.752;2022-07-04T10:52:16;4.95;;;2.35;;
65174;SDS011;51761;42.126;24.752;2022-07-04T10:54:42;2.78;;;2.55;;
65174;SDS011;51761;42.126;24.752;2022-07-04T11:07:20;6.45;;;2.58;;
65174;SDS011;51761;42.126;24.752;2022-07-04T11:12:51;6.35;;;2.20;;
65174;SDS011;51761;42.126;24.752;2022-07-04T11:17:53;9.32;;;2.53;;
65174;SDS011;51761;42.126;24.752;2022-07-04T11:20:20;5.38;;;2.60;;
65174;SDS011;51761;42.126;24.752;2022-07-04T11:22:47;2.22;;;2.00;;
65174;SDS011;51761;42.126;24.752;2022-07-04T11:25:12;4.50;;;2.53;;
65174;SDS011;51761;42.126;24.752;2022-07-04T11:27:39;10.63;;;2.63;;
65174;SDS011;51761;42.126;24.752;2022-07-04T11:30:05;7.68;;;2.60;;
65174;SDS011;51761;42.126;24.752;2022-07-04T11:32:32;5.95;;;2.33;;
65174;SDS011;51761;42.126;24.752;2022-07-04T11:34:59;5.05;;;2.65;;
65174;SDS011;51761;42.126;24.752;2022-07-04T11:37:25;4.53;;;2.60;;
65174;SDS011;51761;42.126;24.752;2022-07-04T11:39:52;5.88;;;2.70;;
65174;SDS011;51761;42.126;24.752;2022-07-04T11:42:18;3.45;;;2.40;;
65174;SDS011;51761;42.126;24.752;2022-07-04T11:45:03;9.23;;;2.92;;
65174;SDS011;51761;42.126;24.752;2022-07-04T11:50:12;6.32;;;2.75;;
65174;SDS011;51761;42.126;24.752;2022-07-04T11:52:40;5.40;;;2.55;;
65174;SDS011;51761;42.126;24.752;2022-07-04T11:55:09;4.32;;;2.60;;
65174;SDS011;51761;42.126;24.752;2022-07-04T11:57:39;4.55;;;2.25;;
65174;SDS011;51761;42.126;24.752;2022-07-04T12:00:08;7.68;;;2.33;;
65174;SDS011;51761;42.126;24.752;2022-07-04T12:02:36;4.65;;;2.53;;
65174;SDS011;51761;42.126;24.752;2022-07-04T12:05:03;10.10;;;2.80;;
65174;SDS011;51761;42.126;24.752;2022-07-04T12:07:34;3.95;;;2.40;;
65174;SDS011;51761;42.126;24.752;2022-07-04T12:10:11;7.78;;;2.40;;
65174;SDS011;51761;42.126;24.752;2022-07-04T12:12:50;8.30;;;2.58;;
65174;SDS011;51761;42.126;24.752;2022-07-04T12:15:38;5.85;;;2.00;;
65174;SDS011;51761;42.126;24.752;2022-07-04T12:18:10;5.47;;;2.50;;
65174;SDS011;51761;42.126;24.752;2022-07-04T12:20:44;6.47;;;2.88;;
65174;SDS011;51761;42.126;24.752;2022-07-04T12:23:11;7.63;;;2.33;;
65174;SDS011;51761;42.126;24.752;2022-07-04T12:25:37;5.25;;;3.00;;
65174;SDS011;51761;42.126;24.752;2022-07-04T12:30:56;7.75;;;2.70;;
65174;SDS011;51761;42.126;24.752;2022-07-04T12:33:24;7.32;;;2.40;;
65174;SDS011;51761;42.126;24.752;2022-07-04T12:46:11;5.47;;;2.58;;
65174;SDS011;51761;42.126;24.752;2022-07-04T12:48:37;7.30;;;2.53;;
65174;SDS011;51761;42.126;24.752;2022-07-04T12:51:21;9.35;;;2.38;;
65174;SDS011;51761;42.126;24.752;2022-07-04T12:53:49;4.40;;;2.10;;
65174;SDS011;51761;42.126;24.752;2022-07-04T12:59:34;4.90;;;2.08;;
65174;SDS011;51761;42.126;24.752;2022-07-04T13:01:52;5.35;;;2.80;;
65174;SDS011;51761;42.126;24.752;2022-07-04T13:04:18;12.10;;;2.38;;
65174;SDS011;51761;42.126;24.752;2022-07-04T13:06:43;7.38;;;2.40;;
65174;SDS011;51761;42.126;24.752;2022-07-04T13:09:09;6.15;;;2.60;;
65174;SDS011;51761;42.126;24.752;2022-07-04T13:11:35;7.63;;;2.45;;
65174;SDS011;51761;42.126;24.752;2022-07-04T13:14:20;3.40;;;2.10;;
65174;SDS011;51761;42.126;24.752;2022-07-04T13:16:45;3.47;;;2.25;;
65174;SDS011;51761;42.126;24.752;2022-07-04T13:19:11;17.63;;;2.63;;
65174;SDS011;51761;42.126;24.752;2022-07-04T13:21:36;4.20;;;2.20;;
65174;SDS011;51761;42.126;24.752;2022-07-04T13:24:02;3.50;;;2.17;;
65174;SDS011;51761;42.126;24.752;2022-07-04T13:26:28;7.55;;;2.15;;
65174;SDS011;51761;42.126;24.752;2022-07-04T13:28:55;5.50;;;2.58;;
65174;SDS011;51761;42.126;24.752;2022-07-04T13:31:21;3.47;;;2.20;;
65174;SDS011;51761;42.126;24.752;2022-07-04T13:33:47;7.70;;;2.30;;
65174;SDS011;51761;42.126;24.752;2022-07-04T13:36:12;6.40;;;2.10;;
65174;SDS011;51761;42.126;24.752;2022-07-04T13:38:39;4.78;;;2.08;;
65174;SDS011;51761;42.126;24.752;2022-07-04T13:41:05;6.32;;;2.22;;
65174;SDS011;51761;42.126;24.752;2022-07-04T13:43:31;8.82;;;2.50;;
65174;SDS011;51761;42.126;24.752;2022-07-04T13:45:57;4.57;;;2.30;;
65174;SDS011;51761;42.126;24.752;2022-07-04T13:48:23;9.00;;;2.45;;
65174;SDS011;51761;42.126;24.752;2022-07-04T13:50:49;3.35;;;2.20;;
65174;SDS011;51761;42.126;24.752;2022-07-04T13:53:15;4.22;;;2.22;;
65174;SDS011;51761;42.126;24.752;2022-07-04T13:55:41;5.00;;;2.50;;
65174;SDS011;51761;42.126;24.752;2022-07-04T13:58:07;4.65;;;2.33;;
65174;SDS011;51761;42.126;24.752;2022-07-04T14:00:34;6.28;;;2.30;;
65174;SDS011;51761;42.126;24.752;2022-07-04T14:03:00;5.35;;;2.28;;
65174;SDS011;51761;42.126;24.752;2022-07-04T14:05:26;5.05;;;2.85;;
65174;SDS011;51761;42.126;24.752;2022-07-04T14:07:53;3.67;;;2.22;;
65174;SDS011;51761;42.126;24.752;2022-07-04T14:10:19;5.22;;;2.35;;
65174;SDS011;51761;42.126;24.752;2022-07-04T14:12:45;3.45;;;2.05;;
65174;SDS011;51761;42.126;24.752;2022-07-04T14:15:11;4.28;;;2.20;;
65174;SDS011;51761;42.126;24.752;2022-07-04T14:17:37;4.40;;;3.13;;
65174;SDS011;51761;42.126;24.752;2022-07-04T14:20:04;5.97;;;2.90;;
65174;SDS011;51761;42.126;24.752;2022-07-04T14:22:30;3.78;;;2.50;;
65174;SDS011;51761;42.126;24.752;2022-07-04T14:24:56;7.80;;;2.47;;
65174;SDS011;51761;42.126;24.752;2022-07-04T14:27:22;4.05;;;1.90;;
65174;SDS011;51761;42.126;24.752;2022-07-04T14:29:47;4.07;;;2.45;;
65174;SDS011;51761;42.126;24.752;2022-07-04T14:32:13;5.10;;;2.67;;
65174;SDS011;51761;42.126;24.752;2022-07-04T14:34:39;6.13;;;2.55;;
65174;SDS011;51761;42.126;24.752;2022-07-04T14:37:04;8.70;;;2.88;;
65174;SDS011;51761;42.126;24.752;2022-07-04T14:39:30;3.50;;;2.20;;
65174;SDS011;51761;42.126;24.752;2022-07-04T14:41:55;3.65;;;2.28;;
65174;SDS011;51761;42.126;24.752;2022-07-04T14:44:21;5.13;;;2.35;;
65174;SDS011;51761;42.126;24.752;2022-07-04T14:46:46;4.22;;;2.40;;
65174;SDS011;51761;42.126;24.752;2022-07-04T14:49:12;7.78;;;2.30;;
65174;SDS011;51761;42.126;24.752;2022-07-04T14:51:37;2.28;;;1.70;;
65174;SDS011;51761;42.126;24.752;2022-07-04T14:54:06;5.53;;;2.28;;
65174;SDS011;51761;42.126;24.752;2022-07-04T14:56:33;2.35;;;1.80;;
65174;SDS011;51761;42.126;24.752;2022-07-04T14:58:59;8.77;;;2.25;;
65174;SDS011;51761;42.126;24.752;2022-07-04T15:01:24;6.65;;;2.58;;
65174;SDS011;51761;42.126;24.752;2022-07-04T15:03:51;5.38;;;2.47;;
65174;SDS011;51761;42.126;24.752;2022-07-04T15:06:17;4.07;;;2.33;;
65174;SDS011;51761;42.126;24.752;2022-07-04T15:08:43;15.85;;;2.55;;
65174;SDS011;51761;42.126;24.752;2022-07-04T15:11:08;6.03;;;2.13;;
65174;SDS011;51761;42.126;24.752;2022-07-04T15:13:34;4.38;;;1.77;;
65174;SDS011;51761;42.126;24.752;2022-07-04T15:15:59;4.70;;;1.83;;
65174;SDS011;51761;42.126;24.752;2022-07-04T15:18:25;3.80;;;2.10;;